createdAt,value
2022-10-20T00:02:34.127Z,94.22
2022-10-20T00:05:36.737Z,94.70
2022-10-20T00:08:39.796Z,94.57
2022-10-20T00:11:42.911Z,94.07
2022-10-20T00:14:44.733Z,94.17
2022-10-20T00:17:46.808Z,93.38
2022-10-20T00:20:49.297Z,93.96
2022-10-20T00:24:01.679Z,93.94
2022-10-20T00:27:04.070Z,93.57
2022-10-20T00:30:06.430Z,94.34
2022-10-20T00:33:08.094Z,94.52
2022-10-20T00:36:13.864Z,94.32
2022-10-20T00:39:15.666Z,94.46
2022-10-20T00:42:19.155Z,94.62
2022-10-20T00:45:22.102Z,94.58
2022-10-20T00:48:26.362Z,94.35
2022-10-20T00:51:30.199Z,94.21
2022-10-20T00:54:32.034Z,94.19
2022-10-20T00:57:34.255Z,94.52
2022-10-20T01:00:50.625Z,93.24
2022-10-20T01:03:52.789Z,92.75
2022-10-20T01:06:54.798Z,93.53
2022-10-20T01:09:57.063Z,93.16
2022-10-20T01:13:04.843Z,92.60
2022-10-20T01:16:42.412Z,92.36
2022-10-20T01:20:20.853Z,91.54
2022-10-20T01:23:39.061Z,91.79
2022-10-20T01:27:17.304Z,91.81
2022-10-20T01:30:21.483Z,91.08
2022-10-20T01:33:42.330Z,92.50
2022-10-20T01:37:02.868Z,92.43
2022-10-20T01:40:13.427Z,93.23
2022-10-20T01:43:18.511Z,91.62
2022-10-20T01:46:22.416Z,92.49
2022-10-20T01:49:24.870Z,91.17
2022-10-20T01:52:28.493Z,90.00
2022-10-20T01:55:30.739Z,89.52
2022-10-20T01:58:51.287Z,89.39
2022-10-20T02:02:20.768Z,88.92
2022-10-20T02:05:44.658Z,90.18
2022-10-20T02:09:00.626Z,89.15
2022-10-20T02:12:29.557Z,88.90
2022-10-20T02:15:32.171Z,87.40
2022-10-20T02:18:39.589Z,88.99
2022-10-20T02:21:41.290Z,88.68
2022-10-20T02:24:45.129Z,88.55
2022-10-20T02:27:48.510Z,89.56
2022-10-20T02:30:52.709Z,89.40
2022-10-20T02:33:58.618Z,90.27
2022-10-20T02:37:02.373Z,90.43
2022-10-20T02:40:05.916Z,89.82
2022-10-20T02:43:07.823Z,89.72
2022-10-20T02:46:10.602Z,90.54
2022-10-20T02:49:12.432Z,90.77
2022-10-20T02:52:14.503Z,90.15
2022-10-20T02:58:18.269Z,92.54
2022-10-20T03:01:20.518Z,92.38
2022-10-20T03:04:22.805Z,93.80
2022-10-20T03:07:24.590Z,94.45
2022-10-20T03:10:26.946Z,94.96
2022-10-20T03:16:31.921Z,93.34
2022-10-20T03:19:33.793Z,92.65
2022-10-20T03:22:35.511Z,92.24
2022-10-20T03:25:37.764Z,90.36
2022-10-20T03:28:40.065Z,90.66
2022-10-20T03:31:41.814Z,90.20
2022-10-20T03:34:44.236Z,89.37
2022-10-20T03:37:46.029Z,88.48
2022-10-20T03:40:48.014Z,89.44
2022-10-20T03:43:50.369Z,90.83
2022-10-20T03:46:52.240Z,91.60
2022-10-20T03:49:54.962Z,92.41
2022-10-20T03:52:57.885Z,92.54
2022-10-20T03:55:59.779Z,93.15
2022-10-20T04:02:03.799Z,93.92
2022-10-20T04:05:06.692Z,92.67
2022-10-20T04:08:09.101Z,92.93
2022-10-20T04:11:10.849Z,92.38
2022-10-20T04:14:12.843Z,91.07
2022-10-20T04:17:15.023Z,89.72
2022-10-20T04:20:17.501Z,90.79
2022-10-20T04:23:19.700Z,89.90
2022-10-20T04:26:21.453Z,88.56
2022-10-20T04:29:24.124Z,87.88
2022-10-20T04:32:26.102Z,88.17
2022-10-20T04:35:27.869Z,89.00
2022-10-20T04:38:31.355Z,89.16
2022-10-20T04:41:33.360Z,88.64
2022-10-20T04:44:36.146Z,89.57
2022-10-20T04:47:39.424Z,89.73
2022-10-20T04:50:42.630Z,90.81
2022-10-20T04:53:45.617Z,90.78
2022-10-20T04:56:47.897Z,88.93
2022-10-20T04:59:50.330Z,90.32
2022-10-20T05:02:52.671Z,90.98
2022-10-20T05:05:55.196Z,91.33
2022-10-20T05:09:00.528Z,92.33
2022-10-20T05:12:03.447Z,93.58
2022-10-20T05:15:05.735Z,94.07
2022-10-20T05:18:08.239Z,94.10
2022-10-20T05:21:13.714Z,93.30
2022-10-20T05:24:21.363Z,93.63
2022-10-20T05:27:26.366Z,93.45
2022-10-20T05:30:29.398Z,93.00
2022-10-20T05:33:31.864Z,92.97
2022-10-20T05:36:34.157Z,94.40
2022-10-20T05:39:44.353Z,93.34
2022-10-20T05:42:46.881Z,92.06
2022-10-20T05:45:54.690Z,91.62
2022-10-20T05:48:59.348Z,91.59
2022-10-20T05:52:01.830Z,93.39
2022-10-20T05:55:05.003Z,94.16
2022-10-20T05:58:07.135Z,93.57
2022-10-20T06:01:18.021Z,93.16
2022-10-20T06:04:24.922Z,93.11
2022-10-20T06:07:26.901Z,92.10
2022-10-20T06:10:29.616Z,92.26
2022-10-20T06:13:32.618Z,92.87
2022-10-20T06:16:35.923Z,92.41
2022-10-20T06:19:38.212Z,91.57
2022-10-20T06:22:40.271Z,90.30
2022-10-20T06:25:42.331Z,90.22
2022-10-20T06:28:45.717Z,90.28
2022-10-20T06:31:50.290Z,91.15
2022-10-20T06:34:54.071Z,89.31
2022-10-20T06:37:56.925Z,90.01
2022-10-20T06:41:07.588Z,87.82
2022-10-20T06:44:09.994Z,85.61
2022-10-20T06:47:12.204Z,84.46
2022-10-20T06:50:14.650Z,83.71
2022-10-20T06:53:17.056Z,82.48
2022-10-20T06:56:21.409Z,82.53
2022-10-20T06:59:23.392Z,80.56
2022-10-20T07:02:25.553Z,77.85
2022-10-20T07:05:27.455Z,76.55
2022-10-20T07:08:31.107Z,75.81
2022-10-20T07:11:34.990Z,74.89
2022-10-20T07:14:37.948Z,75.53
2022-10-20T07:17:40.368Z,78.36
2022-10-20T07:20:42.517Z,78.96
2022-10-20T07:23:45.884Z,77.50
2022-10-20T07:26:48.033Z,74.05
2022-10-20T07:29:49.940Z,74.91
2022-10-20T07:32:54.377Z,74.21
2022-10-20T07:35:57.211Z,72.93
2022-10-20T07:39:01.485Z,72.58
2022-10-20T07:42:03.356Z,72.13
2022-10-20T07:45:06.417Z,71.52
2022-10-20T07:48:10.039Z,71.62
2022-10-20T07:51:27.645Z,71.74
2022-10-20T07:54:29.896Z,72.65
2022-10-20T07:57:32.036Z,72.67
2022-10-20T08:00:34.414Z,72.63
2022-10-20T08:03:37.239Z,72.72
2022-10-20T08:06:39.773Z,69.30
2022-10-20T08:09:42.850Z,68.82
2022-10-20T08:12:44.537Z,66.26
2022-10-20T08:15:47.451Z,67.56
2022-10-20T08:21:58.164Z,67.17
2022-10-20T08:25:00.273Z,67.59
2022-10-20T08:28:03.249Z,65.44
2022-10-20T08:31:06.551Z,66.19
2022-10-20T08:34:09.657Z,67.53
2022-10-20T08:37:11.628Z,70.30
2022-10-20T08:40:20.698Z,69.23
2022-10-20T08:43:23.410Z,69.97
2022-10-20T08:46:30.801Z,70.54
2022-10-20T08:49:34.289Z,70.28
2022-10-20T08:52:39.681Z,69.43
2022-10-20T08:55:44.079Z,70.25
2022-10-20T08:58:47.370Z,68.61
2022-10-20T09:01:49.208Z,69.39
2022-10-20T09:04:57.562Z,66.59
2022-10-20T09:07:59.429Z,63.68
2022-10-20T09:11:03.429Z,66.30
2022-10-20T09:14:05.625Z,62.64
2022-10-20T09:17:13.826Z,65.16
2022-10-20T09:20:35.523Z,62.74
2022-10-20T09:23:43.937Z,65.47
2022-10-20T09:27:03.963Z,63.95
2022-10-20T09:30:26.703Z,62.46
2022-10-20T09:33:30.085Z,60.68
2022-10-20T09:36:35.976Z,58.67
2022-10-20T09:39:51.316Z,63.20
2022-10-20T09:43:02.758Z,62.13
2022-10-20T09:46:07.601Z,62.14
2022-10-20T09:49:27.641Z,62.26
2022-10-20T09:52:35.209Z,60.36
2022-10-20T09:55:42.527Z,61.57
2022-10-20T09:58:47.650Z,60.22
2022-10-20T10:02:15.820Z,60.65
2022-10-20T10:05:21.653Z,60.78
2022-10-20T10:08:26.518Z,60.18
2022-10-20T10:11:36.408Z,61.45
2022-10-20T10:14:39.731Z,60.40
2022-10-20T10:17:43.143Z,59.45
2022-10-20T10:20:45.423Z,59.16
2022-10-20T10:24:00.005Z,58.50
2022-10-20T10:27:02.705Z,59.73
2022-10-20T10:30:16.816Z,59.45
2022-10-20T10:33:29.387Z,60.71
2022-10-20T10:36:35.670Z,61.29
2022-10-20T10:39:37.717Z,61.53
2022-10-20T10:43:16.086Z,60.49
2022-10-20T10:46:29.062Z,59.76
2022-10-20T10:49:49.888Z,60.45
2022-10-20T10:53:13.548Z,59.29
2022-10-20T10:56:38.275Z,57.88
2022-10-20T10:59:43.894Z,60.25
2022-10-20T11:02:59.894Z,59.66
2022-10-20T11:06:16.908Z,57.70
2022-10-20T11:09:48.172Z,61.43
2022-10-20T11:12:53.154Z,61.37
2022-10-20T11:16:31.519Z,54.84
2022-10-20T11:19:54.928Z,59.59
2022-10-20T11:23:13.722Z,58.68
2022-10-20T11:26:29.452Z,59.43
2022-10-20T11:29:42.475Z,59.31
2022-10-20T11:33:13.159Z,57.21
2022-10-20T11:36:19.936Z,57.80
2022-10-20T11:39:45.510Z,58.86
2022-10-20T11:42:55.568Z,56.01
2022-10-20T11:46:01.660Z,55.37
2022-10-20T11:49:04.891Z,57.28
2022-10-20T11:52:19.737Z,58.16
2022-10-20T11:55:51.372Z,55.27
2022-10-20T11:59:29.918Z,57.34
2022-10-20T12:02:59.427Z,56.62
2022-10-20T12:06:27.726Z,56.46
2022-10-20T12:09:55.332Z,56.18
2022-10-20T12:13:18.588Z,55.93
2022-10-20T12:16:52.660Z,55.98
2022-10-20T12:20:20.814Z,55.35
2022-10-20T12:23:51.897Z,55.26
2022-10-20T12:27:09.540Z,55.83
2022-10-20T12:30:39.604Z,55.81
2022-10-20T12:34:00.744Z,54.66
2022-10-20T12:37:28.440Z,55.20
2022-10-20T12:40:33.137Z,55.37
2022-10-20T12:43:51.432Z,54.98
2022-10-20T12:46:58.908Z,55.01
2022-10-20T12:50:34.836Z,56.27
2022-10-20T12:53:37.254Z,54.99
2022-10-20T12:56:41.106Z,56.93
2022-10-20T12:59:44.157Z,56.39
2022-10-20T13:02:55.544Z,55.45
2022-10-20T13:05:59.391Z,57.30
2022-10-20T13:09:04.756Z,55.85
2022-10-20T13:12:25.399Z,54.83
2022-10-20T13:15:51.974Z,56.42
2022-10-20T13:18:53.998Z,56.06
2022-10-20T13:21:56.022Z,57.28
2022-10-20T13:24:59.371Z,56.09
2022-10-20T13:28:12.973Z,55.48
2022-10-20T13:31:29.391Z,54.27
2022-10-20T13:34:49.640Z,55.54
2022-10-20T13:38:09.670Z,56.46
2022-10-20T13:41:16.976Z,56.23
2022-10-20T13:44:44.083Z,55.43
2022-10-20T13:48:16.364Z,54.41
2022-10-20T13:51:25.476Z,55.99
2022-10-20T13:54:33.665Z,55.07
2022-10-20T13:57:36.723Z,57.74
2022-10-20T14:00:39.027Z,56.27
2022-10-20T14:03:46.473Z,54.21
2022-10-20T14:06:48.835Z,54.19
2022-10-20T14:09:57.678Z,55.44
2022-10-20T14:13:01.510Z,56.11
2022-10-20T14:16:12.250Z,56.07
2022-10-20T14:19:14.359Z,58.00
2022-10-20T14:22:25.696Z,56.88
2022-10-20T14:25:28.384Z,56.29
2022-10-20T14:28:33.678Z,57.29
2022-10-20T14:31:35.534Z,56.48
2022-10-20T14:34:37.869Z,58.05
2022-10-20T14:37:45.764Z,55.63
2022-10-20T14:41:07.924Z,56.19
2022-10-20T14:44:30.949Z,57.79
2022-10-20T14:47:41.815Z,57.17
2022-10-20T14:50:44.503Z,57.28
2022-10-20T14:53:47.208Z,58.57
2022-10-20T14:56:52.557Z,59.25
2022-10-20T15:00:04.107Z,59.35
2022-10-20T15:03:07.352Z,60.48
2022-10-20T15:06:16.731Z,60.15
2022-10-20T15:09:55.525Z,58.84
2022-10-20T15:12:57.932Z,61.66
2022-10-20T15:16:03.291Z,61.28
2022-10-20T15:19:18.530Z,60.53
2022-10-20T15:22:20.750Z,62.25
2022-10-20T15:25:25.332Z,63.22
2022-10-20T15:28:38.539Z,63.30
2022-10-20T15:31:40.989Z,64.68
2022-10-20T15:34:44.112Z,64.63
2022-10-20T15:37:51.261Z,65.14
2022-10-20T15:40:53.728Z,65.17
2022-10-20T15:43:55.952Z,65.62
2022-10-20T15:47:01.305Z,65.70
2022-10-20T15:50:03.483Z,66.07
2022-10-20T15:53:06.354Z,66.14
2022-10-20T15:56:08.796Z,67.21
2022-10-20T15:59:12.047Z,67.13
2022-10-20T16:02:14.487Z,66.86
2022-10-20T16:05:18.397Z,67.12
2022-10-20T16:08:20.799Z,67.59
2022-10-20T16:11:23.089Z,67.62
2022-10-20T16:14:25.978Z,68.66
2022-10-20T16:17:28.223Z,67.92
2022-10-20T16:20:30.077Z,67.97
2022-10-20T16:23:32.629Z,68.92
2022-10-20T16:26:34.470Z,68.68
2022-10-20T16:29:37.409Z,68.92
2022-10-20T16:32:39.695Z,69.65
2022-10-20T16:35:43.154Z,69.38
2022-10-20T16:38:45.585Z,68.85
2022-10-20T16:41:47.971Z,69.55
2022-10-20T16:44:51.054Z,69.69
2022-10-20T16:47:53.178Z,69.84
2022-10-20T16:50:55.500Z,70.20
2022-10-20T16:54:02.857Z,69.65
2022-10-20T16:57:08.350Z,70.60
2022-10-20T17:00:10.822Z,70.44
2022-10-20T17:03:16.974Z,70.63
2022-10-20T17:06:24.819Z,70.26
2022-10-20T17:09:27.352Z,71.19
2022-10-20T17:12:29.373Z,71.27
2022-10-20T17:15:31.956Z,71.25
2022-10-20T17:18:34.263Z,71.01
2022-10-20T17:21:36.982Z,71.57
2022-10-20T17:24:39.551Z,71.66
2022-10-20T17:27:41.758Z,71.55
2022-10-20T17:30:45.686Z,72.13
2022-10-20T17:33:47.963Z,73.04
2022-10-20T17:36:50.905Z,71.37
2022-10-20T17:39:53.319Z,71.62
2022-10-20T17:42:55.687Z,72.00
2022-10-20T17:46:02.140Z,72.72
2022-10-20T17:49:04.658Z,74.01
2022-10-20T17:52:06.813Z,73.37
2022-10-20T17:55:09.032Z,72.54
2022-10-20T17:58:11.601Z,73.35
2022-10-20T18:01:18.610Z,73.19
2022-10-20T18:04:20.619Z,73.33
2022-10-20T18:07:22.783Z,72.83
2022-10-20T18:10:25.367Z,73.06
2022-10-20T18:13:28.073Z,73.06
2022-10-20T18:16:33.589Z,73.81
2022-10-20T18:19:35.555Z,74.10
2022-10-20T18:22:37.677Z,74.34
2022-10-20T18:25:40.195Z,74.64
2022-10-20T18:28:45.716Z,74.06
2022-10-20T18:31:51.630Z,74.22
2022-10-20T18:34:54.110Z,74.41
2022-10-20T18:37:57.761Z,74.37
2022-10-20T18:41:16.143Z,73.98
2022-10-20T18:44:20.334Z,75.45
2022-10-20T18:47:22.753Z,74.28
2022-10-20T18:50:28.885Z,74.53
2022-10-20T18:53:32.297Z,75.21
2022-10-20T18:56:36.213Z,74.57
2022-10-20T18:59:38.507Z,74.49
2022-10-20T19:02:41.306Z,74.83
2022-10-20T19:05:44.077Z,74.94
2022-10-20T19:08:57.191Z,75.43
2022-10-20T19:12:02.735Z,75.08
2022-10-20T19:15:07.384Z,75.16
2022-10-20T19:18:10.152Z,75.98
2022-10-20T19:21:12.764Z,75.19
2022-10-20T19:24:23.012Z,75.98
2022-10-20T19:27:26.926Z,76.32
2022-10-20T19:30:40.506Z,77.10
2022-10-20T19:33:43.182Z,76.83
2022-10-20T19:36:47.840Z,75.98
2022-10-20T19:39:51.099Z,76.41
2022-10-20T19:42:53.126Z,76.40
2022-10-20T19:45:56.410Z,77.01
2022-10-20T19:48:59.621Z,77.34
2022-10-20T19:52:02.049Z,77.42
2022-10-20T19:55:04.266Z,78.02
2022-10-20T19:58:06.871Z,78.34
2022-10-20T20:01:09.984Z,77.69
2022-10-20T20:04:12.161Z,76.83
2022-10-20T20:07:14.756Z,76.59
2022-10-20T20:10:17.317Z,76.44
2022-10-20T20:13:19.656Z,77.35
2022-10-20T20:16:22.134Z,77.96
2022-10-20T20:19:24.675Z,77.40
2022-10-20T20:22:27.918Z,77.66
2022-10-20T20:25:30.085Z,77.27
2022-10-20T20:28:35.610Z,77.23
2022-10-20T20:31:38.293Z,77.72
2022-10-20T20:34:41.165Z,77.45
2022-10-20T20:37:43.431Z,77.23
2022-10-20T20:40:47.585Z,77.60
2022-10-20T20:43:50.027Z,77.74
2022-10-20T20:46:52.290Z,78.61
2022-10-20T20:49:54.832Z,78.28
2022-10-20T20:52:56.937Z,78.13
2022-10-20T20:56:04.983Z,78.83
2022-10-20T20:59:06.931Z,77.99
2022-10-20T21:02:11.153Z,79.51
2022-10-20T21:05:13.419Z,79.77
2022-10-20T21:08:15.280Z,80.04
2022-10-20T21:11:20.570Z,80.80
2022-10-20T21:14:22.441Z,80.76
2022-10-20T21:17:24.640Z,82.05
2022-10-20T21:20:26.439Z,82.67
2022-10-20T21:23:28.735Z,80.73
2022-10-20T21:26:31.281Z,81.29
2022-10-20T21:29:33.390Z,79.94
2022-10-20T21:32:35.909Z,79.62
2022-10-20T21:35:38.095Z,79.80
2022-10-20T21:38:42.125Z,78.45
2022-10-20T21:41:45.656Z,79.35
2022-10-20T21:44:50.502Z,81.27
2022-10-20T21:47:56.074Z,83.23
2022-10-20T21:50:58.261Z,83.56
2022-10-20T21:54:05.704Z,80.61
2022-10-20T21:57:08.243Z,79.90
2022-10-20T22:00:10.571Z,81.48
2022-10-20T22:03:12.871Z,82.59
2022-10-20T22:06:16.572Z,82.26
2022-10-20T22:09:18.943Z,81.06
2022-10-20T22:12:21.661Z,83.06
2022-10-20T22:15:23.343Z,82.30
2022-10-20T22:18:26.177Z,82.20
2022-10-20T22:21:29.322Z,82.17
2022-10-20T22:24:31.417Z,83.07
2022-10-20T22:27:42.271Z,82.93
2022-10-20T22:30:44.579Z,83.35
2022-10-20T22:33:46.540Z,84.47
2022-10-20T22:36:48.920Z,84.53
2022-10-20T22:39:51.082Z,85.03
2022-10-20T22:42:52.958Z,84.97
2022-10-20T22:45:55.704Z,85.39
2022-10-20T22:52:04.394Z,85.21
2022-10-20T22:55:06.742Z,85.16
2022-10-20T22:58:09.208Z,83.60
2022-10-20T23:01:22.054Z,84.06
2022-10-20T23:04:24.023Z,83.37
2022-10-20T23:07:26.100Z,84.46
2022-10-20T23:10:29.391Z,84.56
2022-10-20T23:13:31.132Z,84.44
2022-10-20T23:16:33.483Z,84.87
2022-10-20T23:19:35.363Z,85.50
2022-10-20T23:22:37.209Z,85.61
2022-10-20T23:25:42.957Z,85.22
2022-10-20T23:28:44.767Z,85.96
2022-10-20T23:31:47.010Z,86.28
2022-10-20T23:34:49.213Z,85.58
2022-10-20T23:37:52.046Z,85.91
2022-10-20T23:40:54.210Z,86.69
2022-10-20T23:43:55.908Z,87.26
2022-10-20T23:46:58.283Z,86.34
2022-10-20T23:50:00.798Z,86.33
2022-10-20T23:53:02.639Z,86.84
2022-10-20T23:56:05.188Z,86.47
2022-10-20T23:59:06.955Z,86.44
